Time;durP1;ratioP1;P1;durP2;ratioP2;P2;SDS_P1;SDS_P2;PMS_P1;PMS_P2;Temp;Humidity;BMP_temperature;BMP_pressure;BME280_temperature;BME280_humidity;BME280_pressure;Samples;Min_cycle;Max_cycle;Signal;HPM_P1;HPM_P2
2022/04/03 00:00:12;;;;;;;13.23;2.60;;;4.00;47.80;;;;;;5088404;28;20169;-77
2022/04/03 00:02:38;;;;;;;4.53;2.03;;;4.00;48.40;;;;;;5086945;28;20036;-76
2022/04/03 00:05:04;;;;;;;4.55;1.90;;;3.80;48.90;;;;;;5086542;28;20043;-77
2022/04/03 00:07:30;;;;;;;7.15;2.55;;;3.80;49.30;;;;;;5088263;28;20032;-76
2022/04/03 00:09:56;;;;;;;5.57;2.13;;;3.80;48.90;;;;;;5087829;28;20508;-76
2022/04/03 00:12:23;;;;;;;4.55;2.60;;;3.80;48.80;;;;;;5087863;28;20139;-76
2022/04/03 00:14:49;;;;;;;9.00;2.47;;;3.80;49.00;;;;;;5086803;28;20043;-76
2022/04/03 00:17:15;;;;;;;6.00;2.40;;;3.80;49.00;;;;;;5086843;28;20024;-77
2022/04/03 00:19:40;;;;;;;4.38;2.72;;;3.80;48.80;;;;;;5087750;28;20100;-78
2022/04/03 00:22:06;;;;;;;5.50;2.50;;;3.90;48.60;;;;;;5087222;28;20036;-78
2022/04/03 00:24:31;;;;;;;6.88;2.63;;;3.90;48.40;;;;;;5087854;28;20052;-76
2022/04/03 00:26:57;;;;;;;5.30;2.55;;;4.00;48.30;;;;;;5086292;28;20036;-76
2022/04/03 00:29:23;;;;;;;10.55;2.10;;;4.00;48.30;;;;;;5087341;28;20109;-76
2022/04/03 00:31:48;;;;;;;5.28;1.88;;;3.90;48.20;;;;;;5087337;28;20034;-76
2022/04/03 00:34:14;;;;;;;5.57;2.00;;;3.90;48.20;;;;;;5087855;28;20024;-76
2022/04/03 00:36:40;;;;;;;4.57;2.47;;;3.90;48.30;;;;;;5087167;28;20028;-77
2022/04/03 00:39:05;;;;;;;3.95;2.10;;;3.80;48.40;;;;;;5086111;28;20101;-76
2022/04/03 00:41:31;;;;;;;3.88;1.77;;;3.80;48.70;;;;;;5087066;28;20123;-77
2022/04/03 00:43:58;;;;;;;8.35;2.63;;;3.80;48.70;;;;;;5086006;28;20039;-76
2022/04/03 00:46:26;;;;;;;5.40;2.17;;;3.80;48.80;;;;;;5087472;28;20526;-77
2022/04/03 00:48:52;;;;;;;8.88;3.20;;;3.80;48.90;;;;;;5087112;28;20125;-77
2022/04/03 00:51:18;;;;;;;6.18;2.85;;;3.70;49.30;;;;;;5087035;28;20434;-76
2022/04/03 00:53:44;;;;;;;7.88;2.35;;;3.70;49.50;;;;;;5087327;28;20285;-76
2022/04/03 00:56:11;;;;;;;4.75;2.30;;;3.80;49.50;;;;;;5085757;28;20544;-76
2022/04/03 00:58:38;;;;;;;5.18;2.47;;;3.80;49.50;;;;;;5076479;28;20037;-76
2022/04/03 01:01:04;;;;;;;5.13;2.72;;;3.90;50.10;;;;;;5073066;28;20029;-76
2022/04/03 01:03:30;;;;;;;5.47;2.45;;;3.90;50.00;;;;;;5073891;28;20029;-75
2022/04/03 01:05:56;;;;;;;6.82;2.47;;;3.90;49.80;;;;;;5073355;28;20113;-76
2022/04/03 01:08:24;;;;;;;5.13;2.75;;;3.90;50.00;;;;;;5073374;28;20024;-75
2022/04/03 01:10:50;;;;;;;6.93;3.00;;;3.90;50.30;;;;;;5072193;28;20337;-76
2022/04/03 01:13:16;;;;;;;6.25;2.40;;;3.90;50.50;;;;;;5073660;28;20039;-76
2022/04/03 01:15:42;;;;;;;7.13;2.50;;;4.00;50.50;;;;;;5073021;28;20112;-77
2022/04/03 01:18:08;;;;;;;12.68;3.20;;;4.00;50.50;;;;;;5073188;28;20029;-77
2022/04/03 01:20:35;;;;;;;6.65;2.72;;;4.00;50.60;;;;;;5073405;28;20551;-78
2022/04/03 01:23:00;;;;;;;5.63;2.60;;;4.00;51.00;;;;;;5073190;28;20079;-77
2022/04/03 01:25:26;;;;;;;6.38;2.67;;;3.80;51.30;;;;;;5072626;28;20280;-78
2022/04/03 01:27:52;;;;;;;5.32;2.30;;;3.80;51.40;;;;;;5072899;28;20090;-77
2022/04/03 01:30:17;;;;;;;6.30;2.80;;;3.80;51.60;;;;;;5072765;28;20033;-77
2022/04/03 01:32:43;;;;;;;8.07;2.60;;;3.60;51.60;;;;;;5071557;28;20089;-76
2022/04/03 01:35:09;;;;;;;13.00;3.08;;;3.70;52.00;;;;;;5072490;28;20067;-77
2022/04/03 01:37:35;;;;;;;8.80;2.95;;;3.80;52.00;;;;;;5073494;28;20025;-76
2022/04/03 01:40:02;;;;;;;7.82;2.47;;;3.70;52.10;;;;;;5071614;28;20359;-76
2022/04/03 01:42:28;;;;;;;8.13;2.90;;;3.60;52.20;;;;;;5072766;28;20025;-77
2022/04/03 01:44:53;;;;;;;3.20;2.25;;;3.70;52.10;;;;;;5072347;28;20032;-76
2022/04/03 01:47:19;;;;;;;5.47;2.20;;;3.70;51.90;;;;;;5071036;28;20110;-77
2022/04/03 01:49:44;;;;;;;8.88;2.67;;;3.60;52.40;;;;;;5072518;28;20033;-77
2022/04/03 01:52:10;;;;;;;4.38;2.38;;;3.60;52.30;;;;;;5072831;28;20032;-77
2022/04/03 01:54:35;;;;;;;3.92;2.10;;;3.60;52.80;;;;;;5072432;28;20032;-77
2022/04/03 01:57:01;;;;;;;7.07;2.58;;;3.60;52.30;;;;;;5072526;28;20060;-78
2022/04/03 01:59:26;;;;;;;6.00;2.42;;;3.60;52.50;;;;;;5072384;28;20028;-77
2022/04/03 02:01:52;;;;;;;4.93;2.58;;;3.50;52.90;;;;;;5072142;28;20104;-77
2022/04/03 02:04:18;;;;;;;5.25;2.30;;;3.50;53.10;;;;;;5072559;28;20438;-77
2022/04/03 02:06:43;;;;;;;7.00;2.42;;;3.50;53.50;;;;;;5070991;28;20107;-76
2022/04/03 02:09:09;;;;;;;8.52;2.45;;;3.50;53.40;;;;;;5071614;28;20040;-77
2022/04/03 02:11:38;;;;;;;5.07;2.45;;;3.60;53.60;;;;;;5071912;28;20111;-77
2022/04/03 02:14:05;;;;;;;6.05;2.60;;;3.40;53.90;;;;;;5071940;28;20426;-76
2022/04/03 02:16:30;;;;;;;4.55;2.35;;;3.40;54.10;;;;;;5072542;28;20104;-77
2022/04/03 02:18:56;;;;;;;4.10;2.35;;;3.40;54.20;;;;;;5071814;28;20124;-77
2022/04/03 02:21:21;;;;;;;7.68;2.63;;;3.30;54.60;;;;;;5071904;28;20029;-76
2022/04/03 02:23:47;;;;;;;5.82;2.63;;;3.30;55.00;;;;;;5071812;28;20040;-77
2022/04/03 02:26:13;;;;;;;6.13;2.80;;;3.20;55.20;;;;;;5071610;28;20032;-77
2022/04/03 02:28:39;;;;;;;7.47;2.75;;;3.10;55.70;;;;;;5071588;28;20058;-77
2022/04/03 02:31:05;;;;;;;6.03;2.50;;;3.10;55.80;;;;;;5072050;28;20017;-75
2022/04/03 02:33:30;;;;;;;5.63;2.88;;;3.10;56.00;;;;;;5070383;28;20120;-76
2022/04/03 02:35:56;;;;;;;6.35;2.40;;;3.10;56.30;;;;;;5071446;28;20419;-77
2022/04/03 02:38:21;;;;;;;6.75;2.38;;;3.10;56.40;;;;;;5071436;28;20029;-78
2022/04/03 02:40:47;;;;;;;8.88;2.42;;;3.00;56.40;;;;;;5071448;28;20051;-75
2022/04/03 02:43:13;;;;;;;4.80;2.63;;;3.00;56.00;;;;;;5071883;28;20113;-76
2022/04/03 02:45:38;;;;;;;6.20;2.65;;;3.00;56.10;;;;;;5071205;28;20028;-74
2022/04/03 02:48:04;;;;;;;5.75;2.80;;;2.90;56.20;;;;;;5071649;28;20169;-75
2022/04/03 02:50:30;;;;;;;13.38;3.20;;;3.00;56.70;;;;;;5071308;28;20025;-75
2022/04/03 02:52:56;;;;;;;6.95;2.92;;;3.00;56.70;;;;;;5071104;28;20055;-76
2022/04/03 02:55:23;;;;;;;4.25;2.15;;;3.00;56.60;;;;;;5071734;28;20625;-76
2022/04/03 02:57:49;;;;;;;8.73;2.55;;;3.10;57.10;;;;;;5071173;28;20029;-77
2022/04/03 03:00:15;;;;;;;6.22;3.05;;;3.10;57.10;;;;;;5071241;28;20040;-77
2022/04/03 03:02:47;;;;;;;6.53;2.63;;;3.00;57.50;;;;;;5070210;28;20454;-76
2022/04/03 03:05:14;;;;;;;5.55;2.78;;;3.00;57.70;;;;;;5071162;28;20016;-77
2022/04/03 03:07:41;;;;;;;6.00;2.83;;;3.00;57.80;;;;;;5070800;28;20039;-77
2022/04/03 03:10:09;;;;;;;4.78;2.88;;;3.00;57.80;;;;;;5071363;28;20024;-78
2022/04/03 03:12:35;;;;;;;;;;;2.90;57.90;;;;;;5070191;28;20107;-77
2022/04/03 03:15:01;;;;;;;5.10;2.58;;;2.80;58.00;;;;;;5070917;28;20003;-77
2022/04/03 03:17:27;;;;;;;27.48;3.75;;;2.70;58.50;;;;;;5070823;28;20553;-76
2022/04/03 03:19:52;;;;;;;15.32;3.28;;;2.80;58.90;;;;;;5070658;28;20099;-77
2022/04/03 03:22:19;;;;;;;9.15;2.53;;;2.80;59.00;;;;;;5070827;28;20096;-76
2022/04/03 03:24:45;;;;;;;5.65;2.22;;;2.80;58.70;;;;;;5070235;28;20029;-76
2022/04/03 03:27:10;;;;;;;9.30;3.03;;;2.80;58.70;;;;;;5070548;28;20028;-77
2022/04/03 03:29:36;;;;;;;4.45;2.38;;;2.80;58.90;;;;;;5069469;28;20051;-77
2022/04/03 03:32:02;;;;;;;7.00;2.30;;;3.10;58.90;;;;;;5070620;28;20059;-77
2022/04/03 03:34:27;;;;;;;9.95;2.97;;;3.10;58.60;;;;;;5069814;28;20119;-77
2022/04/03 03:36:53;;;;;;;6.22;2.65;;;2.90;59.30;;;;;;5070558;28;20028;-78
2022/04/03 03:39:19;;;;;;;5.40;2.92;;;2.80;59.50;;;;;;5070628;28;20561;-77
2022/04/03 03:41:44;;;;;;;10.48;3.13;;;2.90;59.20;;;;;;5070527;28;20032;-77
2022/04/03 03:44:10;;;;;;;5.22;2.65;;;2.90;59.70;;;;;;5070379;28;20032;-76
2022/04/03 03:46:40;;;;;;;7.13;3.10;;;2.80;59.90;;;;;;5070272;28;20059;-77
2022/04/03 03:49:06;;;;;;;8.73;3.03;;;2.90;59.90;;;;;;5070804;28;20075;-76
2022/04/03 03:51:33;;;;;;;4.95;2.58;;;2.90;60.00;;;;;;5069519;28;20036;-77
2022/04/03 03:53:58;;;;;;;5.72;2.60;;;2.90;60.60;;;;;;5070431;28;20021;-76
2022/04/03 03:56:24;;;;;;;4.68;2.70;;;3.10;61.00;;;;;;5069304;28;20035;-77
2022/04/03 03:58:49;;;;;;;5.93;2.80;;;3.00;60.90;;;;;;5070297;28;20047;-77
2022/04/03 04:01:15;;;;;;;4.30;2.85;;;3.00;61.00;;;;;;5070786;28;20051;-76
2022/04/03 04:03:41;;;;;;;8.55;3.08;;;3.10;61.30;;;;;;5069231;28;20682;-76
2022/04/03 04:06:06;;;;;;;5.35;3.03;;;3.10;61.60;;;;;;5070176;28;20109;-76
2022/04/03 04:08:32;;;;;;;8.68;3.30;;;3.10;61.60;;;;;;5070215;28;20021;-76
2022/04/03 04:10:58;;;;;;;5.97;3.15;;;3.20;61.60;;;;;;5070212;28;20096;-75
2022/04/03 04:13:24;;;;;;;5.85;2.70;;;3.30;61.40;;;;;;5070677;28;20571;-76
2022/04/03 04:15:50;;;;;;;7.70;2.55;;;3.30;61.40;;;;;;5070235;28;20039;-76
2022/04/03 04:18:16;;;;;;;4.78;2.38;;;3.40;61.30;;;;;;5069108;28;20026;-76
2022/04/03 04:20:41;;;;;;;5.30;2.97;;;3.40;61.30;;;;;;5070303;28;20039;-76
2022/04/03 04:23:07;;;;;;;7.45;2.72;;;3.40;61.10;;;;;;5070237;28;20039;-76
2022/04/03 04:25:32;;;;;;;6.90;2.75;;;3.50;62.30;;;;;;5062903;28;20026;-76
2022/04/03 04:28:02;;;;;;;5.10;2.42;;;3.40;61.70;;;;;;5050018;28;20029;-76
2022/04/03 04:30:28;;;;;;;4.13;2.45;;;3.50;61.60;;;;;;5050160;28;20083;-75
2022/04/03 04:32:54;;;;;;;7.55;3.17;;;3.40;61.60;;;;;;5050669;28;20029;-77
2022/04/03 04:35:19;;;;;;;6.93;3.00;;;3.40;62.00;;;;;;5044607;28;20029;-74
2022/04/03 04:37:45;;;;;;;6.63;3.10;;;3.30;62.50;;;;;;5053646;28;20127;-76
2022/04/03 04:40:12;;;;;;;6.85;3.20;;;3.30;62.90;;;;;;5054393;28;20056;-76
2022/04/03 04:42:38;;;;;;;7.00;3.05;;;3.40;63.00;;;;;;5054248;28;20074;-76
2022/04/03 04:45:07;;;;;;;6.20;3.05;;;3.40;63.10;;;;;;5053858;28;20086;-76
2022/04/03 04:47:38;;;;;;;8.63;2.90;;;3.40;63.30;;;;;;5053796;28;20348;-75
2022/04/03 04:50:14;;;;;;;11.63;3.75;;;3.50;63.40;;;;;;5052564;28;20116;-78
2022/04/03 04:52:40;;;;;;;9.43;3.85;;;3.40;64.10;;;;;;5053903;28;20044;-79
2022/04/03 04:55:07;;;;;;;6.18;3.17;;;3.40;64.40;;;;;;5054550;28;20121;-78
2022/04/03 04:57:34;;;;;;;6.05;3.63;;;3.40;65.10;;;;;;5053592;28;20088;-77
2022/04/03 05:00:00;;;;;;;8.95;4.25;;;3.40;65.30;;;;;;5053713;28;20118;-77
2022/04/03 05:02:26;;;;;;;5.80;3.08;;;3.50;65.60;;;;;;5052386;28;20029;-75
2022/04/03 05:04:52;;;;;;;8.23;3.85;;;3.40;66.20;;;;;;5052472;28;20033;-76
2022/04/03 05:07:18;;;;;;;7.45;3.45;;;3.30;67.10;;;;;;5053967;28;20155;-77
2022/04/03 05:09:46;;;;;;;5.68;3.65;;;3.20;67.80;;;;;;5052353;28;20576;-76
2022/04/03 05:12:12;;;;;;;5.15;3.55;;;3.30;67.90;;;;;;5053360;28;20068;-76
2022/04/03 05:14:37;;;;;;;9.80;4.43;;;3.30;68.40;;;;;;5053071;28;20049;-76
2022/04/03 05:17:05;;;;;;;6.85;3.63;;;3.20;69.20;;;;;;5053112;28;20021;-75
2022/04/03 05:19:32;;;;;;;6.78;3.72;;;3.20;69.40;;;;;;5052498;28;20406;-76
2022/04/03 05:21:58;;;;;;;8.65;3.72;;;3.30;69.70;;;;;;5053074;28;20467;-73
2022/04/03 05:24:23;;;;;;;8.63;3.70;;;3.40;68.70;;;;;;5052014;28;20049;-76
2022/04/03 05:26:50;;;;;;;13.05;4.00;;;3.40;69.40;;;;;;5052829;28;20091;-76
2022/04/03 05:29:16;;;;;;;8.85;3.80;;;3.40;69.60;;;;;;5052632;28;20466;-76
2022/04/03 05:31:41;;;;;;;7.63;4.20;;;3.50;69.50;;;;;;5051706;28;20032;-74
2022/04/03 05:34:08;;;;;;;6.45;3.50;;;3.70;69.60;;;;;;5053237;28;20017;-75
2022/04/03 05:36:34;;;;;;;6.30;3.58;;;3.50;69.40;;;;;;5052826;28;20236;-74
2022/04/03 05:39:04;;;;;;;6.47;3.50;;;3.60;69.50;;;;;;5052948;28;20065;-76
2022/04/03 05:41:30;;;;;;;8.77;3.92;;;3.50;70.00;;;;;;5052808;28;20025;-76
2022/04/03 05:43:55;;;;;;;9.27;4.72;;;3.60;70.40;;;;;;5052365;28;20025;-75
2022/04/03 05:46:22;;;;;;;11.98;3.88;;;3.60;70.20;;;;;;5052699;28;20068;-74
2022/04/03 05:48:48;;;;;;;13.57;3.92;;;3.70;70.40;;;;;;5052592;28;20030;-75
2022/04/03 05:51:13;;;;;;;7.95;4.03;;;3.80;70.40;;;;;;5052462;28;20481;-75
2022/04/03 05:53:40;;;;;;;6.18;3.92;;;3.80;70.90;;;;;;5052453;28;20043;-74
2022/04/03 05:56:05;;;;;;;8.52;4.25;;;3.80;71.10;;;;;;5052379;28;20064;-75
2022/04/03 05:58:31;;;;;;;7.00;4.13;;;3.80;71.40;;;;;;5053140;28;20072;-75
2022/04/03 06:00:56;;;;;;;9.85;4.43;;;3.90;71.50;;;;;;5052146;28;20064;-76
2022/04/03 06:03:22;;;;;;;9.65;4.18;;;3.80;72.30;;;;;;5052234;28;20030;-75
2022/04/03 06:05:48;;;;;;;13.45;4.47;;;3.90;72.10;;;;;;5052254;28;20033;-75
2022/04/03 06:08:13;;;;;;;9.07;4.35;;;3.80;72.70;;;;;;5052070;28;20025;-75
2022/04/03 06:10:39;;;;;;;6.03;4.13;;;3.90;72.60;;;;;;5052335;28;20039;-75
2022/04/03 06:13:07;;;;;;;7.20;4.35;;;3.90;72.80;;;;;;5052340;28;20024;-75
2022/04/03 06:15:37;;;;;;;9.68;4.60;;;3.90;73.00;;;;;;5052067;28;20419;-76
2022/04/03 06:18:05;;;;;;;7.97;3.88;;;4.00;72.90;;;;;;5051847;28;20037;-76
2022/04/03 06:20:31;;;;;;;;;;;4.00;73.40;;;;;;5051527;28;20085;-78
2022/04/03 06:22:57;;;;;;;12.40;4.32;;;4.10;73.20;;;;;;5051947;28;19912;-76
2022/04/03 06:25:23;;;;;;;8.80;4.15;;;4.20;72.60;;;;;;5051404;28;20024;-77
2022/04/03 06:27:51;;;;;;;7.57;4.47;;;4.20;72.60;;;;;;5051985;28;20040;-77
2022/04/03 06:30:16;;;;;;;6.85;4.07;;;4.20;72.60;;;;;;5050778;28;20099;-76
2022/04/03 06:32:42;;;;;;;10.80;3.75;;;4.30;72.30;;;;;;5052396;28;20084;-77
2022/04/03 06:35:09;;;;;;;10.02;4.68;;;4.30;72.40;;;;;;5053628;28;20032;-78
2022/04/03 06:37:35;;;;;;;9.93;4.50;;;4.30;72.70;;;;;;5092074;28;20063;-75
2022/04/03 06:40:00;;;;;;;8.70;3.92;;;4.30;72.60;;;;;;5080037;28;20457;-76
2022/04/03 06:42:28;;;;;;;8.10;4.45;;;4.30;73.20;;;;;;5050882;28;20135;-76
2022/04/03 06:44:54;;;;;;;12.80;4.72;;;4.40;73.20;;;;;;5050439;28;20037;-76
2022/04/03 06:47:19;;;;;;;8.35;4.45;;;4.30;73.20;;;;;;5051460;28;20037;-74
2022/04/03 06:49:45;;;;;;;10.57;4.75;;;4.40;73.40;;;;;;5051276;28;20463;-75
2022/04/03 06:52:10;;;;;;;9.15;4.32;;;4.40;73.70;;;;;;5052180;28;20095;-76
2022/04/03 06:54:37;;;;;;;5.70;3.63;;;4.50;73.80;;;;;;5051532;28;20037;-75
2022/04/03 06:57:03;;;;;;;7.47;4.00;;;4.50;73.80;;;;;;5049464;28;20405;-73
2022/04/03 06:59:29;;;;;;;8.45;4.13;;;4.50;74.00;;;;;;5051162;28;20029;-74
2022/04/03 07:01:55;;;;;;;6.38;3.75;;;4.60;73.80;;;;;;5050936;28;20021;-74
2022/04/03 07:04:21;;;;;;;6.93;4.00;;;4.50;74.00;;;;;;5051653;28;20613;-75
2022/04/03 07:06:47;;;;;;;14.23;4.22;;;4.50;74.30;;;;;;5051087;28;20427;-76
2022/04/03 07:09:13;;;;;;;9.45;3.50;;;4.50;74.50;;;;;;5055834;28;20025;-76
2022/04/03 07:11:39;;;;;;;8.20;3.67;;;4.50;74.80;;;;;;5056313;28;20082;-75
2022/04/03 07:14:04;;;;;;;8.35;3.72;;;4.60;74.50;;;;;;5054435;28;20243;-75
2022/04/03 07:16:30;;;;;;;8.35;3.30;;;4.60;75.00;;;;;;5054121;28;20303;-78
2022/04/03 07:18:56;;;;;;;8.05;3.42;;;4.80;74.50;;;;;;5054531;28;20043;-75
2022/04/03 07:21:22;;;;;;;8.60;3.80;;;5.00;74.10;;;;;;5055504;28;20037;-74
2022/04/03 07:23:48;;;;;;;7.20;3.67;;;5.00;73.60;;;;;;5050663;28;20033;-73
2022/04/03 07:26:13;;;;;;;13.35;3.40;;;5.00;73.30;;;;;;5050790;28;20044;-72
2022/04/03 07:28:40;;;;;;;5.82;2.97;;;5.00;73.20;;;;;;5051776;28;20025;-74
2022/04/03 07:31:06;;;;;;;6.25;3.08;;;5.10;73.50;;;;;;5052095;28;20032;-73
2022/04/03 07:33:32;;;;;;;9.05;3.28;;;5.00;73.40;;;;;;5054383;28;20029;-77
2022/04/03 07:35:57;;;;;;;5.68;2.92;;;5.00;73.10;;;;;;5055373;28;20112;-75
2022/04/03 07:38:23;;;;;;;7.07;3.25;;;5.20;73.20;;;;;;5049999;28;20029;-72
2022/04/03 07:40:48;;;;;;;5.88;2.83;;;5.30;72.80;;;;;;5050963;28;20028;-74
2022/04/03 07:43:16;;;;;;;11.68;3.47;;;5.30;72.50;;;;;;5051021;28;20028;-71
2022/04/03 07:45:42;;;;;;;10.07;3.17;;;5.30;72.20;;;;;;5051011;28;20033;-71
2022/04/03 07:48:08;;;;;;;4.25;2.47;;;5.40;72.40;;;;;;5049238;28;20040;-74
2022/04/03 07:50:34;;;;;;;7.70;3.00;;;5.50;72.10;;;;;;5050655;28;20112;-72
2022/04/03 07:53:00;;;;;;;7.28;2.78;;;5.60;71.90;;;;;;5062192;28;20123;-71
2022/04/03 07:55:26;;;;;;;8.15;2.70;;;5.60;71.30;;;;;;5071026;28;20039;-72
2022/04/03 07:57:52;;;;;;;5.75;2.83;;;5.80;71.30;;;;;;5070292;28;20029;-72
2022/04/03 08:00:17;;;;;;;4.68;2.53;;;5.90;70.80;;;;;;5070418;28;20028;-72
2022/04/03 08:02:43;;;;;;;7.38;3.22;;;6.10;70.70;;;;;;5070619;28;20020;-71
2022/04/03 08:05:09;;;;;;;8.00;3.25;;;6.30;70.30;;;;;;5070454;28;20029;-72
2022/04/03 08:07:45;;;;;;;10.40;5.03;;;6.50;69.90;;;;;;5070829;28;20382;-71
2022/04/03 08:10:13;;;;;;;3.67;1.90;;;6.50;69.20;;;;;;5074528;28;20047;-72
2022/04/03 08:12:43;;;;;;;8.85;2.28;;;6.50;68.00;;;;;;5074659;28;20025;-72
2022/04/03 08:15:10;;;;;;;4.55;2.08;;;6.60;67.70;;;;;;5074048;28;20474;-74
2022/04/03 08:17:39;;;;;;;3.78;2.33;;;6.70;67.60;;;;;;5074598;28;20338;-72
2022/04/03 08:20:11;;;;;;;5.30;2.03;;;6.70;67.40;;;;;;5073013;28;20035;-73
2022/04/03 08:22:39;;;;;;;4.97;2.30;;;6.90;67.50;;;;;;5074022;28;20031;-72
2022/04/03 08:25:06;;;;;;;6.10;2.45;;;7.00;67.10;;;;;;5074677;28;20100;-74
2022/04/03 08:27:54;;;;;;;4.18;2.17;;;7.30;66.70;;;;;;5074183;28;20190;-73
2022/04/03 08:30:40;;;;;;;6.88;2.50;;;8.80;64.60;;;;;;5074124;28;20033;-73
2022/04/03 08:33:06;;;;;;;5.22;2.00;;;10.20;61.80;;;;;;5073773;28;20029;-72
2022/04/03 08:35:38;;;;;;;4.30;1.95;;;11.40;58.90;;;;;;5072670;28;20462;-73
2022/04/03 08:38:04;;;;;;;4.40;2.47;;;12.70;56.40;;;;;;5073786;28;20071;-74
2022/04/03 08:40:31;;;;;;;3.53;1.80;;;13.00;55.30;;;;;;5074236;28;20150;-73
2022/04/03 08:42:57;;;;;;;3.13;1.73;;;13.50;53.30;;;;;;5072632;28;20105;-75
2022/04/03 08:45:24;;;;;;;5.05;1.83;;;14.30;52.50;;;;;;5072764;28;20444;-75
2022/04/03 08:47:52;;;;;;;6.32;2.15;;;15.40;52.20;;;;;;5073477;28;20059;-72
2022/04/03 08:50:20;;;;;;;4.60;1.73;;;16.70;50.70;;;;;;5073533;28;20032;-72
2022/04/03 08:52:51;;;;;;;3.53;1.70;;;17.10;48.00;;;;;;5071922;28;20029;-72
2022/04/03 08:55:17;;;;;;;3.75;1.98;;;17.20;47.10;;;;;;5074094;28;20029;-72
2022/04/03 08:57:43;;;;;;;4.03;1.70;;;16.70;47.70;;;;;;5073661;28;20071;-72
2022/04/03 09:00:10;;;;;;;3.83;1.75;;;16.80;45.90;;;;;;5072347;28;20028;-75
2022/04/03 09:02:36;;;;;;;5.20;1.75;;;16.70;46.50;;;;;;5071976;28;20024;-73
2022/04/03 09:05:05;;;;;;;7.10;1.67;;;17.40;46.00;;;;;;5073094;28;20033;-72
2022/04/03 09:07:31;;;;;;;8.73;1.95;;;17.30;44.30;;;;;;5073456;28;20047;-72
2022/04/03 09:10:00;;;;;;;5.30;1.73;;;17.40;44.50;;;;;;5072843;28;20469;-74
2022/04/03 09:12:26;;;;;;;2.47;1.20;;;16.20;44.00;;;;;;5071917;28;20035;-72
2022/04/03 09:14:54;;;;;;;2.60;1.33;;;17.10;45.60;;;;;;5073017;28;20092;-71
2022/04/03 09:17:44;;;;;;;;;;;17.20;44.30;;;;;;5073109;28;20405;-71
2022/04/03 09:20:14;;;;;;;5.85;1.45;;;16.80;44.80;;;;;;5072739;28;19912;-73
2022/04/03 09:22:45;;;;;;;2.63;1.20;;;16.30;45.30;;;;;;5072882;28;20100;-74
2022/04/03 09:25:13;;;;;;;1.80;0.95;;;15.80;45.20;;;;;;5073163;28;20086;-73
2022/04/03 09:27:47;;;;;;;;;;;15.30;44.80;;;;;;5073195;28;20028;-75
2022/04/03 09:30:13;;;;;;;2.13;0.95;;;15.20;46.40;;;;;;5073219;28;19908;-74
2022/04/03 09:32:54;;;;;;;6.75;1.55;;;14.40;45.40;;;;;;5072793;28;20167;-73
2022/04/03 09:35:24;;;;;;;5.65;1.10;;;14.10;46.70;;;;;;5072452;28;20039;-74
2022/04/03 09:38:04;;;;;;;3.03;1.00;;;14.30;47.10;;;;;;5072579;28;20024;-72
2022/04/03 09:40:31;;;;;;;2.00;0.90;;;14.40;46.90;;;;;;5072957;28;20043;-73
2022/04/03 09:43:18;;;;;;;4.63;1.08;;;14.30;46.90;;;;;;5069579;28;20115;-74
2022/04/03 09:45:51;;;;;;;1.92;1.17;;;13.20;47.20;;;;;;5072535;28;20083;-72
2022/04/03 09:48:22;;;;;;;3.92;1.23;;;12.80;48.00;;;;;;5072628;28;20041;-74
2022/04/03 09:51:10;;;;;;;3.17;1.20;;;12.50;48.30;;;;;;5072884;28;20119;-73
2022/04/03 09:53:56;;;;;;;;;;;12.40;48.70;;;;;;5072877;28;20099;-72
2022/04/03 09:56:22;;;;;;;1.88;1.20;;;12.30;49.20;;;;;;5072418;28;19912;-75
2022/04/03 09:58:50;;;;;;;3.20;0.90;;;12.10;48.70;;;;;;5072049;28;20027;-74
2022/04/03 10:01:23;;;;;;;3.80;1.30;;;11.60;49.70;;;;;;5071702;28;20029;-76
2022/04/03 10:03:49;;;;;;;3.78;0.85;;;11.80;49.60;;;;;;5072772;28;20025;-74
2022/04/03 10:06:17;;;;;;;5.55;1.60;;;12.00;48.90;;;;;;5072398;28;20039;-74
2022/04/03 10:08:44;;;;;;;3.55;1.10;;;11.80;48.80;;;;;;5071044;28;20028;-74
2022/04/03 10:11:10;;;;;;;5.20;1.40;;;11.50;49.40;;;;;;5070954;28;20328;-74
2022/04/03 10:13:37;;;;;;;2.72;0.90;;;11.10;50.00;;;;;;5072593;28;20030;-75
2022/04/03 10:16:06;;;;;;;2.95;1.00;;;11.50;50.60;;;;;;5072335;28;20048;-75
2022/04/03 10:18:33;;;;;;;4.65;1.00;;;11.30;50.70;;;;;;5072354;28;20090;-74
2022/04/03 10:20:59;;;;;;;5.30;1.13;;;11.30;51.30;;;;;;5072084;28;20024;-74
2022/04/03 10:23:28;;;;;;;8.10;1.30;;;12.30;51.70;;;;;;5071966;28;20036;-76
2022/04/03 10:25:56;;;;;;;4.47;1.77;;;13.50;50.00;;;;;;5071754;28;20353;-77
2022/04/03 10:28:23;;;;;;;4.63;1.33;;;12.70;49.90;;;;;;5071172;28;20035;-76
2022/04/03 10:31:07;;;;;;;4.20;1.35;;;12.70;50.20;;;;;;5069829;28;20055;-76
2022/04/03 10:33:40;;;;;;;5.57;1.45;;;13.30;50.60;;;;;;5070020;28;20370;-77
2022/04/03 10:36:22;;;;;;;4.53;1.10;;;14.50;49.20;;;;;;5071757;28;20028;-79
2022/04/03 10:38:59;;;;;;;5.85;1.23;;;14.20;49.20;;;;;;5070214;28;20043;-74
2022/04/03 10:41:35;;;;;;;8.05;1.70;;;13.80;49.20;;;;;;5070434;28;20139;-75
2022/04/03 10:44:14;;;;;;;3.05;1.35;;;13.40;49.50;;;;;;5071442;28;20358;-79
2022/04/03 10:47:01;;;;;;;5.78;1.73;;;12.80;50.60;;;;;;5070726;28;20060;-76
2022/04/03 10:49:48;;;;;;;5.03;1.20;;;12.00;52.20;;;;;;5071582;28;20417;-78
2022/04/03 10:52:26;;;;;;;4.38;0.90;;;10.90;53.80;;;;;;5071028;28;20044;-77
2022/04/03 10:54:54;;;;;;;5.80;1.40;;;10.60;54.30;;;;;;5070997;28;20119;-77
2022/04/03 10:57:42;;;;;;;3.30;0.93;;;10.30;55.30;;;;;;5071207;28;20102;-77
2022/04/03 11:00:14;;;;;;;2.60;1.10;;;10.40;55.90;;;;;;5071393;28;20033;-81
2022/04/03 11:02:55;;;;;;;4.60;1.00;;;10.40;55.60;;;;;;5070926;28;20024;-80
2022/04/03 11:05:26;;;;;;;3.75;1.27;;;10.20;56.10;;;;;;5069916;28;20024;-80
2022/04/03 11:08:04;;;;;;;4.03;1.25;;;10.20;57.00;;;;;;5071079;28;20530;-78
2022/04/03 11:11:08;;;;;;;2.97;0.97;;;10.70;57.20;;;;;;5071568;28;20025;-76
2022/04/03 11:13:34;;;;;;;9.75;1.63;;;10.60;56.80;;;;;;5049348;28;20286;-80
2022/04/03 11:16:03;;;;;;;5.68;1.05;;;10.50;56.10;;;;;;5071283;28;20461;-80
2022/04/03 11:18:37;;;;;;;5.95;1.63;;;10.60;56.30;;;;;;5070830;28;20033;-80
2022/04/03 11:21:16;;;;;;;4.72;1.30;;;10.90;55.90;;;;;;5069465;28;20024;-80
2022/04/03 11:24:05;;;;;;;5.93;1.05;;;10.80;55.20;;;;;;5070838;28;20028;-78
2022/04/03 11:26:32;;;;;;;6.22;0.90;;;10.80;54.70;;;;;;5070893;28;20809;-81
2022/04/03 11:28:58;;;;;;;3.65;1.08;;;11.10;54.40;;;;;;5070335;28;20362;-78
2022/04/03 11:31:24;;;;;;;5.07;1.20;;;10.90;54.70;;;;;;5070831;28;20017;-79
2022/04/03 11:33:51;;;;;;;4.35;1.05;;;11.80;54.40;;;;;;5069432;28;20029;-82
2022/04/03 11:36:19;;;;;;;3.03;0.82;;;11.70;54.00;;;;;;5069278;28;20039;-80
2022/04/03 11:38:46;;;;;;;6.68;1.50;;;11.30;54.60;;;;;;5069564;28;20028;-81
2022/04/03 11:41:34;;;;;;;1.43;0.90;;;11.50;54.70;;;;;;5070552;28;20462;-77
2022/04/03 11:44:04;;;;;;;4.32;1.00;;;11.20;54.80;;;;;;5069183;28;20258;-78
2022/04/03 11:46:31;;;;;;;8.02;1.30;;;10.90;55.40;;;;;;5069167;28;20344;-78
2022/04/03 11:48:57;;;;;;;2.27;1.03;;;11.00;55.80;;;;;;5070338;28;20071;-79
2022/04/03 11:51:23;;;;;;;9.32;1.25;;;10.90;56.30;;;;;;5070382;28;20564;-77
2022/04/03 11:54:01;;;;;;;8.18;1.73;;;10.70;56.30;;;;;;5070384;28;20647;-78
2022/04/03 11:56:31;;;;;;;4.25;1.25;;;10.70;56.30;;;;;;5070517;28;20114;-77
2022/04/03 11:58:57;;;;;;;8.35;1.20;;;11.00;56.00;;;;;;5070324;28;20049;-78
2022/04/03 12:01:27;;;;;;;7.95;1.20;;;10.90;55.90;;;;;;5070587;28;20464;-78
2022/04/03 12:04:12;;;;;;;3.00;1.10;;;10.30;56.60;;;;;;5069596;28;20037;-78
2022/04/03 12:06:39;;;;;;;5.40;1.52;;;10.00;57.30;;;;;;5070417;28;20044;-76
2022/04/03 12:09:11;;;;;;;4.50;1.40;;;10.20;57.30;;;;;;5070209;28;20098;-77
2022/04/03 12:11:42;;;;;;;5.47;1.58;;;10.10;57.40;;;;;;5070315;28;20025;-77
2022/04/03 12:14:09;;;;;;;0.88;0.60;;;10.30;57.40;;;;;;5070026;28;20021;-77
2022/04/03 12:16:39;;;;;;;2.28;1.23;;;10.30;57.70;;;;;;5070534;28;20024;-76
2022/04/03 12:19:10;;;;;;;5.15;1.20;;;10.30;58.20;;;;;;5070742;28;20528;-76
2022/04/03 12:21:43;;;;;;;5.38;1.50;;;10.30;58.20;;;;;;5070083;28;20357;-77
2022/04/03 12:24:10;;;;;;;7.45;1.08;;;10.30;58.40;;;;;;5068674;28;20166;-74
2022/04/03 12:26:37;;;;;;;5.90;1.10;;;10.30;58.10;;;;;;5068908;28;20028;-74
2022/04/03 12:29:05;;;;;;;5.32;0.98;;;10.20;57.90;;;;;;5070018;28;20025;-74
2022/04/03 12:31:32;;;;;;;2.83;0.80;;;10.10;57.80;;;;;;5069355;28;20031;-75
2022/04/03 12:34:11;;;;;;;3.90;1.00;;;9.90;60.00;;;;;;5069993;28;20348;-75
2022/04/03 12:36:44;;;;;;;4.43;1.10;;;9.40;62.80;;;;;;5064556;28;20475;-77
2022/04/03 12:39:45;;;;;;;2.08;1.10;;;9.50;64.80;;;;;;5049916;28;20044;-75
2022/04/03 12:42:36;;;;;;;3.67;0.98;;;9.60;66.90;;;;;;5049994;28;20037;-73
2022/04/03 12:45:02;;;;;;;3.05;1.10;;;9.40;68.20;;;;;;5049756;28;20355;-72
2022/04/03 12:47:35;;;;;;;1.90;1.00;;;9.60;69.10;;;;;;5049566;28;20090;-73
2022/04/03 12:50:06;;;;;;;2.60;1.20;;;9.90;69.40;;;;;;5049750;28;20033;-74
2022/04/03 12:52:50;;;;;;;3.53;0.80;;;10.00;71.10;;;;;;5050280;28;20075;-75
2022/04/03 12:55:22;;;;;;;7.47;3.20;;;10.50;69.00;;;;;;5052613;28;20103;-76
2022/04/03 13:01:15;;;;;;;2.90;0.68;;;10.00;67.60;;;;;;5053202;28;20090;-74
2022/04/03 13:03:42;;;;;;;0.95;0.70;;;10.00;67.10;;;;;;5048024;28;20033;-75